sensor_id;sensor_type;location;lat;lon;timestamp;P1;durP1;ratioP1;P2;durP2;ratioP2
77495;SDS011;66600;48.378;9.948;2023-03-23T00:00:43;6.10;;;2.88;;
77495;SDS011;66600;48.378;9.948;2023-03-23T00:03:09;5.18;;;3.05;;
77495;SDS011;66600;48.378;9.948;2023-03-23T00:05:34;3.60;;;2.65;;
77495;SDS011;66600;48.378;9.948;2023-03-23T00:08:02;4.45;;;2.70;;
77495;SDS011;66600;48.378;9.948;2023-03-23T00:10:28;3.03;;;2.42;;
77495;SDS011;66600;48.378;9.948;2023-03-23T00:12:57;9.85;;;3.30;;
77495;SDS011;66600;48.378;9.948;2023-03-23T00:15:27;5.80;;;2.72;;
77495;SDS011;66600;48.378;9.948;2023-03-23T00:17:55;5.82;;;2.80;;
77495;SDS011;66600;48.378;9.948;2023-03-23T00:20:27;5.63;;;3.30;;
77495;SDS011;66600;48.378;9.948;2023-03-23T00:22:54;4.35;;;3.00;;
77495;SDS011;66600;48.378;9.948;2023-03-23T00:25:25;5.03;;;3.35;;
77495;SDS011;66600;48.378;9.948;2023-03-23T00:27:51;5.60;;;3.17;;
77495;SDS011;66600;48.378;9.948;2023-03-23T00:30:16;5.05;;;3.20;;
77495;SDS011;66600;48.378;9.948;2023-03-23T00:32:42;4.07;;;2.90;;
77495;SDS011;66600;48.378;9.948;2023-03-23T00:35:08;5.55;;;3.17;;
77495;SDS011;66600;48.378;9.948;2023-03-23T00:37:33;5.25;;;3.08;;
77495;SDS011;66600;48.378;9.948;2023-03-23T00:40:00;5.10;;;3.30;;
77495;SDS011;66600;48.378;9.948;2023-03-23T00:42:26;5.35;;;3.10;;
77495;SDS011;66600;48.378;9.948;2023-03-23T00:44:53;6.25;;;3.70;;
77495;SDS011;66600;48.378;9.948;2023-03-23T00:47:25;6.38;;;3.75;;
77495;SDS011;66600;48.378;9.948;2023-03-23T00:49:50;8.63;;;3.80;;
77495;SDS011;66600;48.378;9.948;2023-03-23T00:52:17;6.32;;;4.07;;
77495;SDS011;66600;48.378;9.948;2023-03-23T00:54:42;7.43;;;3.67;;
77495;SDS011;66600;48.378;9.948;2023-03-23T00:57:07;6.70;;;4.13;;
77495;SDS011;66600;48.378;9.948;2023-03-23T00:59:34;5.63;;;4.00;;
77495;SDS011;66600;48.378;9.948;2023-03-23T01:01:59;8.70;;;4.07;;
77495;SDS011;66600;48.378;9.948;2023-03-23T01:04:25;5.72;;;4.15;;
77495;SDS011;66600;48.378;9.948;2023-03-23T01:06:53;7.32;;;3.72;;
77495;SDS011;66600;48.378;9.948;2023-03-23T01:09:19;6.15;;;3.92;;
77495;SDS011;66600;48.378;9.948;2023-03-23T01:11:46;7.38;;;3.80;;
77495;SDS011;66600;48.378;9.948;2023-03-23T01:14:13;8.20;;;4.00;;
77495;SDS011;66600;48.378;9.948;2023-03-23T01:16:40;7.18;;;3.83;;
77495;SDS011;66600;48.378;9.948;2023-03-23T01:19:06;6.22;;;4.13;;
77495;SDS011;66600;48.378;9.948;2023-03-23T01:21:31;6.53;;;4.25;;
77495;SDS011;66600;48.378;9.948;2023-03-23T01:23:57;8.25;;;4.05;;
77495;SDS011;66600;48.378;9.948;2023-03-23T01:26:24;6.60;;;4.35;;
77495;SDS011;66600;48.378;9.948;2023-03-23T01:28:50;7.28;;;4.03;;
77495;SDS011;66600;48.378;9.948;2023-03-23T01:31:18;6.10;;;4.18;;
77495;SDS011;66600;48.378;9.948;2023-03-23T01:33:45;5.30;;;3.97;;
77495;SDS011;66600;48.378;9.948;2023-03-23T01:36:12;8.23;;;4.20;;
77495;SDS011;66600;48.378;9.948;2023-03-23T01:38:40;6.95;;;4.25;;
77495;SDS011;66600;48.378;9.948;2023-03-23T01:41:07;8.95;;;4.80;;
77495;SDS011;66600;48.378;9.948;2023-03-23T01:43:32;6.75;;;4.38;;
77495;SDS011;66600;48.378;9.948;2023-03-23T01:45:57;6.50;;;4.13;;
77495;SDS011;66600;48.378;9.948;2023-03-23T01:48:23;6.07;;;3.70;;
77495;SDS011;66600;48.378;9.948;2023-03-23T01:50:57;8.27;;;4.30;;
77495;SDS011;66600;48.378;9.948;2023-03-23T01:53:31;7.05;;;4.13;;
77495;SDS011;66600;48.378;9.948;2023-03-23T01:56:02;7.60;;;4.60;;
77495;SDS011;66600;48.378;9.948;2023-03-23T01:58:29;8.55;;;4.35;;
77495;SDS011;66600;48.378;9.948;2023-03-23T02:00:57;6.25;;;4.25;;
77495;SDS011;66600;48.378;9.948;2023-03-23T02:03:26;6.00;;;4.10;;
77495;SDS011;66600;48.378;9.948;2023-03-23T02:05:53;8.43;;;4.88;;
77495;SDS011;66600;48.378;9.948;2023-03-23T02:08:23;6.45;;;4.50;;
77495;SDS011;66600;48.378;9.948;2023-03-23T02:10:49;7.40;;;4.53;;
77495;SDS011;66600;48.378;9.948;2023-03-23T02:13:14;12.50;;;5.10;;
77495;SDS011;66600;48.378;9.948;2023-03-23T02:15:43;7.88;;;4.93;;
77495;SDS011;66600;48.378;9.948;2023-03-23T02:24:04;6.80;;;4.53;;
77495;SDS011;66600;48.378;9.948;2023-03-23T02:35:12;7.03;;;5.05;;
77495;SDS011;66600;48.378;9.948;2023-03-23T02:37:46;9.20;;;5.20;;
77495;SDS011;66600;48.378;9.948;2023-03-23T02:40:22;8.05;;;5.22;;
77495;SDS011;66600;48.378;9.948;2023-03-23T02:42:52;7.45;;;5.00;;
77495;SDS011;66600;48.378;9.948;2023-03-23T02:47:47;8.75;;;5.38;;
77495;SDS011;66600;48.378;9.948;2023-03-23T02:50:15;8.95;;;5.57;;
77495;SDS011;66600;48.378;9.948;2023-03-23T02:52:44;9.30;;;5.18;;
77495;SDS011;66600;48.378;9.948;2023-03-23T02:55:11;7.78;;;4.82;;
77495;SDS011;66600;48.378;9.948;2023-03-23T02:57:39;9.10;;;5.45;;
77495;SDS011;66600;48.378;9.948;2023-03-23T03:00:05;8.80;;;5.15;;
77495;SDS011;66600;48.378;9.948;2023-03-23T03:02:36;8.80;;;5.07;;
77495;SDS011;66600;48.378;9.948;2023-03-23T03:05:21;10.60;;;5.32;;
77495;SDS011;66600;48.378;9.948;2023-03-23T03:07:59;8.30;;;5.20;;
77495;SDS011;66600;48.378;9.948;2023-03-23T03:10:50;8.00;;;5.00;;
77495;SDS011;66600;48.378;9.948;2023-03-23T03:16:07;10.20;;;5.18;;
77495;SDS011;66600;48.378;9.948;2023-03-23T03:18:44;7.70;;;4.90;;
77495;SDS011;66600;48.378;9.948;2023-03-23T03:21:11;7.40;;;4.68;;
77495;SDS011;66600;48.378;9.948;2023-03-23T03:23:40;8.82;;;4.70;;
77495;SDS011;66600;48.378;9.948;2023-03-23T03:26:09;6.03;;;4.32;;
77495;SDS011;66600;48.378;9.948;2023-03-23T03:28:36;10.40;;;4.87;;
77495;SDS011;66600;48.378;9.948;2023-03-23T03:31:03;7.05;;;4.43;;
77495;SDS011;66600;48.378;9.948;2023-03-23T03:33:30;6.63;;;4.68;;
77495;SDS011;66600;48.378;9.948;2023-03-23T03:36:00;6.78;;;4.97;;
77495;SDS011;66600;48.378;9.948;2023-03-23T03:38:27;8.60;;;4.97;;
77495;SDS011;66600;48.378;9.948;2023-03-23T03:40:53;8.05;;;4.85;;
77495;SDS011;66600;48.378;9.948;2023-03-23T03:43:19;8.35;;;5.38;;
77495;SDS011;66600;48.378;9.948;2023-03-23T03:45:45;7.43;;;4.97;;
77495;SDS011;66600;48.378;9.948;2023-03-23T03:48:11;6.80;;;4.80;;
77495;SDS011;66600;48.378;9.948;2023-03-23T03:50:37;9.35;;;5.10;;
77495;SDS011;66600;48.378;9.948;2023-03-23T03:53:02;7.15;;;5.03;;
77495;SDS011;66600;48.378;9.948;2023-03-23T03:55:28;8.15;;;5.03;;
77495;SDS011;66600;48.378;9.948;2023-03-23T03:57:54;8.60;;;4.97;;
77495;SDS011;66600;48.378;9.948;2023-03-23T04:00:20;7.53;;;5.15;;
77495;SDS011;66600;48.378;9.948;2023-03-23T04:02:47;7.93;;;5.30;;
77495;SDS011;66600;48.378;9.948;2023-03-23T04:05:16;7.85;;;5.35;;
77495;SDS011;66600;48.378;9.948;2023-03-23T04:07:42;10.40;;;5.45;;
77495;SDS011;66600;48.378;9.948;2023-03-23T04:10:08;7.28;;;5.03;;
77495;SDS011;66600;48.378;9.948;2023-03-23T04:12:35;8.27;;;5.13;;
77495;SDS011;66600;48.378;9.948;2023-03-23T04:15:01;7.93;;;4.93;;
77495;SDS011;66600;48.378;9.948;2023-03-23T04:17:27;6.78;;;5.10;;
77495;SDS011;66600;48.378;9.948;2023-03-23T04:19:53;7.63;;;5.07;;
77495;SDS011;66600;48.378;9.948;2023-03-23T04:22:23;8.23;;;4.90;;
77495;SDS011;66600;48.378;9.948;2023-03-23T04:24:55;7.85;;;5.18;;
77495;SDS011;66600;48.378;9.948;2023-03-23T04:27:26;8.38;;;4.60;;
77495;SDS011;66600;48.378;9.948;2023-03-23T04:29:53;10.10;;;5.15;;
77495;SDS011;66600;48.378;9.948;2023-03-23T04:32:19;7.70;;;5.05;;
77495;SDS011;66600;48.378;9.948;2023-03-23T04:34:45;8.02;;;5.50;;
77495;SDS011;66600;48.378;9.948;2023-03-23T04:37:11;8.70;;;5.30;;
77495;SDS011;66600;48.378;9.948;2023-03-23T04:39:38;8.82;;;5.30;;
77495;SDS011;66600;48.378;9.948;2023-03-23T04:42:04;10.23;;;5.53;;
77495;SDS011;66600;48.378;9.948;2023-03-23T04:44:30;8.48;;;5.00;;
77495;SDS011;66600;48.378;9.948;2023-03-23T04:46:57;7.63;;;5.25;;
77495;SDS011;66600;48.378;9.948;2023-03-23T04:49:26;8.27;;;4.95;;
77495;SDS011;66600;48.378;9.948;2023-03-23T04:51:51;7.32;;;4.97;;
77495;SDS011;66600;48.378;9.948;2023-03-23T04:54:17;8.40;;;5.60;;
77495;SDS011;66600;48.378;9.948;2023-03-23T04:56:42;7.63;;;5.15;;
77495;SDS011;66600;48.378;9.948;2023-03-23T04:59:07;8.00;;;5.55;;
77495;SDS011;66600;48.378;9.948;2023-03-23T05:01:33;8.10;;;5.80;;
77495;SDS011;66600;48.378;9.948;2023-03-23T05:04:01;9.80;;;5.38;;
77495;SDS011;66600;48.378;9.948;2023-03-23T05:06:27;8.25;;;5.75;;
77495;SDS011;66600;48.378;9.948;2023-03-23T05:08:52;8.25;;;5.28;;
77495;SDS011;66600;48.378;9.948;2023-03-23T05:11:17;7.32;;;5.15;;
77495;SDS011;66600;48.378;9.948;2023-03-23T05:13:43;8.32;;;4.97;;
77495;SDS011;66600;48.378;9.948;2023-03-23T05:16:09;7.75;;;4.55;;
77495;SDS011;66600;48.378;9.948;2023-03-23T05:18:34;8.00;;;5.25;;
77495;SDS011;66600;48.378;9.948;2023-03-23T05:21:00;7.43;;;4.85;;
77495;SDS011;66600;48.378;9.948;2023-03-23T05:23:27;7.25;;;5.03;;
77495;SDS011;66600;48.378;9.948;2023-03-23T05:25:55;6.50;;;4.50;;
77495;SDS011;66600;48.378;9.948;2023-03-23T05:28:25;6.90;;;4.45;;
77495;SDS011;66600;48.378;9.948;2023-03-23T05:30:51;5.80;;;4.10;;
77495;SDS011;66600;48.378;9.948;2023-03-23T05:33:18;8.00;;;4.55;;
77495;SDS011;66600;48.378;9.948;2023-03-23T05:35:45;7.65;;;4.47;;
77495;SDS011;66600;48.378;9.948;2023-03-23T05:38:12;6.80;;;4.07;;
77495;SDS011;66600;48.378;9.948;2023-03-23T05:40:37;6.13;;;4.13;;
77495;SDS011;66600;48.378;9.948;2023-03-23T05:43:03;6.82;;;4.70;;
77495;SDS011;66600;48.378;9.948;2023-03-23T05:45:28;6.68;;;4.20;;
77495;SDS011;66600;48.378;9.948;2023-03-23T05:47:53;8.60;;;4.60;;
77495;SDS011;66600;48.378;9.948;2023-03-23T05:50:19;5.85;;;4.35;;
77495;SDS011;66600;48.378;9.948;2023-03-23T05:52:44;8.65;;;4.22;;
77495;SDS011;66600;48.378;9.948;2023-03-23T05:55:10;7.28;;;4.70;;
77495;SDS011;66600;48.378;9.948;2023-03-23T05:57:36;7.50;;;4.55;;
77495;SDS011;66600;48.378;9.948;2023-03-23T06:00:02;9.88;;;5.00;;
77495;SDS011;66600;48.378;9.948;2023-03-23T06:02:45;7.60;;;4.85;;
77495;SDS011;66600;48.378;9.948;2023-03-23T06:05:14;8.43;;;5.18;;
77495;SDS011;66600;48.378;9.948;2023-03-23T06:07:40;10.23;;;5.20;;
77495;SDS011;66600;48.378;9.948;2023-03-23T06:10:06;9.77;;;4.93;;
77495;SDS011;66600;48.378;9.948;2023-03-23T06:12:34;6.68;;;4.70;;
77495;SDS011;66600;48.378;9.948;2023-03-23T06:15:03;8.77;;;4.88;;
77495;SDS011;66600;48.378;9.948;2023-03-23T06:17:31;6.78;;;4.57;;
77495;SDS011;66600;48.378;9.948;2023-03-23T06:19:57;7.90;;;4.30;;
77495;SDS011;66600;48.378;9.948;2023-03-23T06:22:22;9.68;;;4.93;;
77495;SDS011;66600;48.378;9.948;2023-03-23T06:24:48;6.40;;;4.63;;
77495;SDS011;66600;48.378;9.948;2023-03-23T06:27:14;7.53;;;5.10;;
77495;SDS011;66600;48.378;9.948;2023-03-23T06:29:41;8.70;;;4.80;;
77495;SDS011;66600;48.378;9.948;2023-03-23T06:32:06;7.65;;;4.50;;
77495;SDS011;66600;48.378;9.948;2023-03-23T06:34:32;7.55;;;4.63;;
77495;SDS011;66600;48.378;9.948;2023-03-23T06:36:57;6.05;;;4.45;;
77495;SDS011;66600;48.378;9.948;2023-03-23T06:39:23;8.18;;;4.20;;
77495;SDS011;66600;48.378;9.948;2023-03-23T06:41:49;6.22;;;4.18;;
77495;SDS011;66600;48.378;9.948;2023-03-23T06:44:14;7.07;;;4.22;;
77495;SDS011;66600;48.378;9.948;2023-03-23T06:46:40;6.63;;;3.80;;
77495;SDS011;66600;48.378;9.948;2023-03-23T06:49:07;7.75;;;4.57;;
77495;SDS011;66600;48.378;9.948;2023-03-23T06:51:32;7.88;;;4.25;;
77495;SDS011;66600;48.378;9.948;2023-03-23T06:54:02;6.28;;;4.07;;
77495;SDS011;66600;48.378;9.948;2023-03-23T06:56:28;6.97;;;3.80;;
77495;SDS011;66600;48.378;9.948;2023-03-23T06:58:55;5.78;;;4.00;;
77495;SDS011;66600;48.378;9.948;2023-03-23T07:01:20;6.85;;;3.90;;
77495;SDS011;66600;48.378;9.948;2023-03-23T07:03:46;6.43;;;3.75;;
77495;SDS011;66600;48.378;9.948;2023-03-23T07:06:13;5.68;;;3.55;;
77495;SDS011;66600;48.378;9.948;2023-03-23T07:08:39;6.85;;;3.78;;
77495;SDS011;66600;48.378;9.948;2023-03-23T07:11:04;6.00;;;3.55;;
77495;SDS011;66600;48.378;9.948;2023-03-23T07:13:30;6.00;;;3.92;;
77495;SDS011;66600;48.378;9.948;2023-03-23T07:15:56;5.32;;;3.53;;
77495;SDS011;66600;48.378;9.948;2023-03-23T07:18:22;5.97;;;3.70;;
77495;SDS011;66600;48.378;9.948;2023-03-23T07:20:48;6.20;;;4.00;;
77495;SDS011;66600;48.378;9.948;2023-03-23T07:23:14;6.15;;;3.83;;
77495;SDS011;66600;48.378;9.948;2023-03-23T07:25:41;6.22;;;3.92;;
77495;SDS011;66600;48.378;9.948;2023-03-23T07:28:08;5.47;;;3.78;;
77495;SDS011;66600;48.378;9.948;2023-03-23T07:30:33;7.57;;;4.07;;
77495;SDS011;66600;48.378;9.948;2023-03-23T07:32:59;6.40;;;3.75;;
77495;SDS011;66600;48.378;9.948;2023-03-23T07:35:26;5.65;;;3.80;;
77495;SDS011;66600;48.378;9.948;2023-03-23T07:37:55;6.45;;;3.85;;
77495;SDS011;66600;48.378;9.948;2023-03-23T07:40:20;7.32;;;3.53;;
77495;SDS011;66600;48.378;9.948;2023-03-23T07:42:46;5.47;;;3.28;;
77495;SDS011;66600;48.378;9.948;2023-03-23T07:45:18;6.30;;;3.70;;
77495;SDS011;66600;48.378;9.948;2023-03-23T07:47:44;6.95;;;3.85;;
77495;SDS011;66600;48.378;9.948;2023-03-23T07:50:10;6.13;;;3.70;;
77495;SDS011;66600;48.378;9.948;2023-03-23T07:52:37;6.25;;;3.90;;
77495;SDS011;66600;48.378;9.948;2023-03-23T07:55:04;6.63;;;3.75;;
77495;SDS011;66600;48.378;9.948;2023-03-23T07:57:42;7.20;;;3.65;;
77495;SDS011;66600;48.378;9.948;2023-03-23T08:00:09;6.05;;;3.42;;
77495;SDS011;66600;48.378;9.948;2023-03-23T08:02:40;5.18;;;3.40;;
77495;SDS011;66600;48.378;9.948;2023-03-23T08:05:06;5.65;;;3.65;;
77495;SDS011;66600;48.378;9.948;2023-03-23T08:07:33;4.82;;;3.45;;
77495;SDS011;66600;48.378;9.948;2023-03-23T08:09:59;7.07;;;3.80;;
77495;SDS011;66600;48.378;9.948;2023-03-23T08:12:24;5.38;;;3.40;;
77495;SDS011;66600;48.378;9.948;2023-03-23T08:14:50;6.97;;;3.55;;
77495;SDS011;66600;48.378;9.948;2023-03-23T08:17:20;7.05;;;3.80;;
77495;SDS011;66600;48.378;9.948;2023-03-23T08:19:52;4.88;;;3.53;;
77495;SDS011;66600;48.378;9.948;2023-03-23T08:22:17;6.50;;;4.05;;
77495;SDS011;66600;48.378;9.948;2023-03-23T08:24:43;8.52;;;4.20;;
77495;SDS011;66600;48.378;9.948;2023-03-23T08:27:08;6.68;;;3.72;;
77495;SDS011;66600;48.378;9.948;2023-03-23T08:29:34;5.53;;;3.72;;
77495;SDS011;66600;48.378;9.948;2023-03-23T08:32:00;5.50;;;3.92;;
77495;SDS011;66600;48.378;9.948;2023-03-23T08:34:27;5.32;;;3.70;;
77495;SDS011;66600;48.378;9.948;2023-03-23T08:36:54;8.23;;;3.72;;
77495;SDS011;66600;48.378;9.948;2023-03-23T08:39:20;5.75;;;3.72;;
77495;SDS011;66600;48.378;9.948;2023-03-23T08:41:48;4.82;;;3.90;;
77495;SDS011;66600;48.378;9.948;2023-03-23T08:44:13;5.22;;;3.83;;
77495;SDS011;66600;48.378;9.948;2023-03-23T08:46:39;4.72;;;3.42;;
77495;SDS011;66600;48.378;9.948;2023-03-23T08:49:05;4.85;;;3.42;;
77495;SDS011;66600;48.378;9.948;2023-03-23T08:51:31;5.55;;;3.60;;
77495;SDS011;66600;48.378;9.948;2023-03-23T08:53:57;5.57;;;3.75;;
77495;SDS011;66600;48.378;9.948;2023-03-23T08:56:22;6.40;;;4.20;;
77495;SDS011;66600;48.378;9.948;2023-03-23T08:58:47;6.65;;;3.55;;
77495;SDS011;66600;48.378;9.948;2023-03-23T09:01:13;5.57;;;3.55;;
77495;SDS011;66600;48.378;9.948;2023-03-23T09:03:40;6.35;;;3.80;;
77495;SDS011;66600;48.378;9.948;2023-03-23T09:06:06;5.78;;;4.00;;
77495;SDS011;66600;48.378;9.948;2023-03-23T09:08:32;5.82;;;3.70;;
77495;SDS011;66600;48.378;9.948;2023-03-23T09:11:04;5.32;;;3.75;;
77495;SDS011;66600;48.378;9.948;2023-03-23T09:13:32;5.90;;;3.75;;
77495;SDS011;66600;48.378;9.948;2023-03-23T09:16:02;7.18;;;3.75;;
77495;SDS011;66600;48.378;9.948;2023-03-23T09:18:31;6.70;;;3.92;;
77495;SDS011;66600;48.378;9.948;2023-03-23T09:20:58;5.32;;;3.28;;
77495;SDS011;66600;48.378;9.948;2023-03-23T09:23:24;6.60;;;3.83;;
77495;SDS011;66600;48.378;9.948;2023-03-23T09:25:50;5.88;;;3.67;;
77495;SDS011;66600;48.378;9.948;2023-03-23T09:28:16;5.25;;;3.60;;
77495;SDS011;66600;48.378;9.948;2023-03-23T09:30:42;6.63;;;3.55;;
77495;SDS011;66600;48.378;9.948;2023-03-23T09:33:09;8.50;;;3.70;;
77495;SDS011;66600;48.378;9.948;2023-03-23T09:35:35;5.78;;;4.18;;
77495;SDS011;66600;48.378;9.948;2023-03-23T09:38:02;5.35;;;3.75;;
77495;SDS011;66600;48.378;9.948;2023-03-23T09:40:30;5.20;;;3.42;;
77495;SDS011;66600;48.378;9.948;2023-03-23T09:48:26;8.40;;;3.60;;
77495;SDS011;66600;48.378;9.948;2023-03-23T09:56:51;6.10;;;3.60;;
77495;SDS011;66600;48.378;9.948;2023-03-23T09:59:21;7.10;;;3.70;;
77495;SDS011;66600;48.378;9.948;2023-03-23T10:02:11;5.45;;;3.55;;
77495;SDS011;66600;48.378;9.948;2023-03-23T10:04:46;5.45;;;3.67;;
77495;SDS011;66600;48.378;9.948;2023-03-23T10:07:14;6.22;;;3.10;;
77495;SDS011;66600;48.378;9.948;2023-03-23T10:09:45;5.43;;;3.42;;
77495;SDS011;66600;48.378;9.948;2023-03-23T10:19:38;5.00;;;3.50;;
77495;SDS011;66600;48.378;9.948;2023-03-23T10:22:11;6.32;;;3.40;;
77495;SDS011;66600;48.378;9.948;2023-03-23T10:24:43;5.10;;;3.50;;
77495;SDS011;66600;48.378;9.948;2023-03-23T10:35:53;5.20;;;3.20;;
77495;SDS011;66600;48.378;9.948;2023-03-23T10:38:55;6.50;;;3.63;;
77495;SDS011;66600;48.378;9.948;2023-03-23T10:41:36;5.75;;;3.20;;
77495;SDS011;66600;48.378;9.948;2023-03-23T10:44:07;7.13;;;3.20;;
77495;SDS011;66600;48.378;9.948;2023-03-23T10:46:58;3.85;;;2.97;;
77495;SDS011;66600;48.378;9.948;2023-03-23T10:49:27;7.25;;;3.33;;
77495;SDS011;66600;48.378;9.948;2023-03-23T10:52:03;4.72;;;2.92;;
77495;SDS011;66600;48.378;9.948;2023-03-23T10:54:46;5.50;;;3.00;;
77495;SDS011;66600;48.378;9.948;2023-03-23T10:57:20;4.07;;;2.88;;
77495;SDS011;66600;48.378;9.948;2023-03-23T10:59:49;4.70;;;2.92;;
77495;SDS011;66600;48.378;9.948;2023-03-23T11:02:16;5.20;;;2.90;;
77495;SDS011;66600;48.378;9.948;2023-03-23T11:04:54;5.03;;;2.55;;
77495;SDS011;66600;48.378;9.948;2023-03-23T11:07:24;4.50;;;2.95;;
77495;SDS011;66600;48.378;9.948;2023-03-23T11:09:54;4.65;;;2.67;;
77495;SDS011;66600;48.378;9.948;2023-03-23T11:15:25;4.65;;;2.60;;
77495;SDS011;66600;48.378;9.948;2023-03-23T11:17:56;4.95;;;2.58;;
77495;SDS011;66600;48.378;9.948;2023-03-23T11:20:24;4.60;;;3.03;;
77495;SDS011;66600;48.378;9.948;2023-03-23T11:22:51;4.15;;;2.95;;
77495;SDS011;66600;48.378;9.948;2023-03-23T11:25:17;5.05;;;2.78;;
77495;SDS011;66600;48.378;9.948;2023-03-23T11:27:42;5.00;;;3.08;;
77495;SDS011;66600;48.378;9.948;2023-03-23T11:30:09;5.13;;;2.95;;
77495;SDS011;66600;48.378;9.948;2023-03-23T11:32:37;4.05;;;2.80;;
77495;SDS011;66600;48.378;9.948;2023-03-23T11:35:15;5.47;;;2.53;;
77495;SDS011;66600;48.378;9.948;2023-03-23T11:37:45;4.45;;;2.38;;
77495;SDS011;66600;48.378;9.948;2023-03-23T11:40:18;4.32;;;2.30;;
77495;SDS011;66600;48.378;9.948;2023-03-23T11:42:56;3.70;;;2.03;;
77495;SDS011;66600;48.378;9.948;2023-03-23T11:45:25;2.75;;;1.40;;
77495;SDS011;66600;48.378;9.948;2023-03-23T11:50:58;1.77;;;1.25;;
77495;SDS011;66600;48.378;9.948;2023-03-23T11:53:31;4.43;;;1.50;;
77495;SDS011;66600;48.378;9.948;2023-03-23T11:56:23;2.00;;;1.20;;
77495;SDS011;66600;48.378;9.948;2023-03-23T11:58:55;3.67;;;1.55;;
77495;SDS011;66600;48.378;9.948;2023-03-23T12:01:25;2.88;;;1.60;;
77495;SDS011;66600;48.378;9.948;2023-03-23T12:04:19;2.30;;;1.50;;
77495;SDS011;66600;48.378;9.948;2023-03-23T12:07:13;2.50;;;1.50;;
77495;SDS011;66600;48.378;9.948;2023-03-23T12:15:30;3.75;;;1.45;;
77495;SDS011;66600;48.378;9.948;2023-03-23T12:23:24;4.07;;;1.80;;
77495;SDS011;66600;48.378;9.948;2023-03-23T12:28:40;5.55;;;2.05;;
77495;SDS011;66600;48.378;9.948;2023-03-23T12:36:32;5.03;;;2.50;;
77495;SDS011;66600;48.378;9.948;2023-03-23T12:39:05;4.88;;;2.42;;
77495;SDS011;66600;48.378;9.948;2023-03-23T12:44:07;3.97;;;2.28;;
77495;SDS011;66600;48.378;9.948;2023-03-23T12:46:45;3.25;;;2.00;;
77495;SDS011;66600;48.378;9.948;2023-03-23T12:49:37;3.08;;;1.88;;
77495;SDS011;66600;48.378;9.948;2023-03-23T12:53:10;3.28;;;1.88;;
77495;SDS011;66600;48.378;9.948;2023-03-23T12:58:04;3.42;;;1.70;;
77495;SDS011;66600;48.378;9.948;2023-03-23T13:08:44;3.15;;;1.73;;
77495;SDS011;66600;48.378;9.948;2023-03-23T13:11:18;4.00;;;1.92;;
77495;SDS011;66600;48.378;9.948;2023-03-23T13:13:48;2.95;;;1.85;;
77495;SDS011;66600;48.378;9.948;2023-03-23T13:16:20;3.83;;;2.17;;
77495;SDS011;66600;48.378;9.948;2023-03-23T13:19:02;5.45;;;2.05;;
77495;SDS011;66600;48.378;9.948;2023-03-23T13:21:43;5.35;;;2.50;;
77495;SDS011;66600;48.378;9.948;2023-03-23T13:24:14;4.65;;;2.30;;
77495;SDS011;66600;48.378;9.948;2023-03-23T13:26:43;7.15;;;2.67;;
77495;SDS011;66600;48.378;9.948;2023-03-23T13:29:13;4.47;;;2.63;;
77495;SDS011;66600;48.378;9.948;2023-03-23T13:31:44;4.80;;;2.60;;
77495;SDS011;66600;48.378;9.948;2023-03-23T13:34:14;4.35;;;2.80;;
77495;SDS011;66600;48.378;9.948;2023-03-23T13:36:55;4.30;;;2.50;;
77495;SDS011;66600;48.378;9.948;2023-03-23T13:39:24;4.05;;;2.67;;
77495;SDS011;66600;48.378;9.948;2023-03-23T13:42:47;4.28;;;2.83;;
77495;SDS011;66600;48.378;9.948;2023-03-23T13:47:46;4.35;;;2.60;;
77495;SDS011;66600;48.378;9.948;2023-03-23T13:50:24;6.78;;;3.00;;
77495;SDS011;66600;48.378;9.948;2023-03-23T13:52:53;7.35;;;2.78;;
77495;SDS011;66600;48.378;9.948;2023-03-23T14:00:35;4.72;;;2.90;;
77495;SDS011;66600;48.378;9.948;2023-03-23T14:05:39;6.85;;;2.85;;
77495;SDS011;66600;48.378;9.948;2023-03-23T14:08:11;6.50;;;2.40;;
77495;SDS011;66600;48.378;9.948;2023-03-23T14:10:41;5.72;;;2.67;;
77495;SDS011;66600;48.378;9.948;2023-03-23T14:13:19;4.72;;;2.47;;
77495;SDS011;66600;48.378;9.948;2023-03-23T14:16:02;5.20;;;2.75;;
77495;SDS011;66600;48.378;9.948;2023-03-23T14:18:31;3.70;;;2.40;;
77495;SDS011;66600;48.378;9.948;2023-03-23T14:21:00;4.38;;;2.50;;
77495;SDS011;66600;48.378;9.948;2023-03-23T14:23:27;4.97;;;2.65;;
77495;SDS011;66600;48.378;9.948;2023-03-23T14:26:00;4.32;;;2.50;;
77495;SDS011;66600;48.378;9.948;2023-03-23T14:28:32;4.75;;;2.88;;
77495;SDS011;66600;48.378;9.948;2023-03-23T14:31:05;4.97;;;2.53;;
77495;SDS011;66600;48.378;9.948;2023-03-23T14:33:43;5.72;;;2.63;;
77495;SDS011;66600;48.378;9.948;2023-03-23T14:36:09;4.57;;;2.53;;
77495;SDS011;66600;48.378;9.948;2023-03-23T14:38:35;4.88;;;2.60;;
77495;SDS011;66600;48.378;9.948;2023-03-23T14:41:04;4.18;;;2.60;;
77495;SDS011;66600;48.378;9.948;2023-03-23T14:43:30;5.60;;;2.53;;
77495;SDS011;66600;48.378;9.948;2023-03-23T14:45:59;7.25;;;2.75;;
77495;SDS011;66600;48.378;9.948;2023-03-23T14:48:26;3.67;;;2.25;;
77495;SDS011;66600;48.378;9.948;2023-03-23T14:51:00;4.15;;;2.40;;
77495;SDS011;66600;48.378;9.948;2023-03-23T14:53:33;7.15;;;2.55;;
77495;SDS011;66600;48.378;9.948;2023-03-23T14:56:04;5.10;;;2.53;;
77495;SDS011;66600;48.378;9.948;2023-03-23T14:58:35;6.15;;;2.80;;
77495;SDS011;66600;48.378;9.948;2023-03-23T15:01:04;4.88;;;2.40;;
77495;SDS011;66600;48.378;9.948;2023-03-23T15:03:35;4.10;;;2.47;;
77495;SDS011;66600;48.378;9.948;2023-03-23T15:06:05;3.45;;;2.20;;
77495;SDS011;66600;48.378;9.948;2023-03-23T15:08:35;5.05;;;2.40;;
77495;SDS011;66600;48.378;9.948;2023-03-23T15:13:32;4.03;;;2.53;;
77495;SDS011;66600;48.378;9.948;2023-03-23T15:16:06;5.38;;;2.40;;
77495;SDS011;66600;48.378;9.948;2023-03-23T15:21:08;5.72;;;2.38;;
77495;SDS011;66600;48.378;9.948;2023-03-23T15:23:40;4.15;;;2.60;;
77495;SDS011;66600;48.378;9.948;2023-03-23T15:26:09;4.80;;;2.63;;
77495;SDS011;66600;48.378;9.948;2023-03-23T15:28:45;4.82;;;2.45;;
77495;SDS011;66600;48.378;9.948;2023-03-23T15:31:11;6.40;;;2.60;;
77495;SDS011;66600;48.378;9.948;2023-03-23T15:33:37;5.10;;;2.45;;
77495;SDS011;66600;48.378;9.948;2023-03-23T15:36:08;3.67;;;2.25;;
77495;SDS011;66600;48.378;9.948;2023-03-23T15:38:44;5.40;;;2.60;;
77495;SDS011;66600;48.378;9.948;2023-03-23T15:41:24;4.40;;;2.70;;
77495;SDS011;66600;48.378;9.948;2023-03-23T15:43:52;6.82;;;2.92;;
77495;SDS011;66600;48.378;9.948;2023-03-23T15:46:23;5.88;;;3.00;;
77495;SDS011;66600;48.378;9.948;2023-03-23T15:51:25;4.93;;;2.83;;
77495;SDS011;66600;48.378;9.948;2023-03-23T15:53:53;4.60;;;2.70;;
77495;SDS011;66600;48.378;9.948;2023-03-23T15:56:19;4.75;;;2.80;;
77495;SDS011;66600;48.378;9.948;2023-03-23T15:58:45;5.15;;;2.55;;
77495;SDS011;66600;48.378;9.948;2023-03-23T16:01:12;5.82;;;3.17;;
77495;SDS011;66600;48.378;9.948;2023-03-23T16:06:14;5.05;;;3.05;;
77495;SDS011;66600;48.378;9.948;2023-03-23T16:08:42;4.22;;;2.60;;
77495;SDS011;66600;48.378;9.948;2023-03-23T16:11:14;4.70;;;2.60;;
77495;SDS011;66600;48.378;9.948;2023-03-23T16:13:41;7.80;;;2.95;;
77495;SDS011;66600;48.378;9.948;2023-03-23T16:16:09;5.32;;;2.60;;
77495;SDS011;66600;48.378;9.948;2023-03-23T16:18:39;4.88;;;2.83;;
77495;SDS011;66600;48.378;9.948;2023-03-23T16:21:04;6.10;;;3.35;;
77495;SDS011;66600;48.378;9.948;2023-03-23T16:23:30;4.65;;;2.83;;
77495;SDS011;66600;48.378;9.948;2023-03-23T16:25:55;4.15;;;2.53;;
77495;SDS011;66600;48.378;9.948;2023-03-23T16:28:20;4.53;;;2.70;;
77495;SDS011;66600;48.378;9.948;2023-03-23T16:30:46;5.53;;;3.40;;
77495;SDS011;66600;48.378;9.948;2023-03-23T16:33:11;6.40;;;2.97;;
77495;SDS011;66600;48.378;9.948;2023-03-23T16:35:37;5.25;;;2.88;;
77495;SDS011;66600;48.378;9.948;2023-03-23T16:38:03;5.13;;;2.88;;
77495;SDS011;66600;48.378;9.948;2023-03-23T16:40:29;5.00;;;3.20;;
77495;SDS011;66600;48.378;9.948;2023-03-23T16:42:55;5.30;;;3.17;;
77495;SDS011;66600;48.378;9.948;2023-03-23T16:45:20;6.57;;;3.47;;